createdAt,value
2022-08-24T00:02:23.147Z,77.98
2022-08-24T00:05:28.914Z,78.29
2022-08-24T00:08:37.758Z,78.10
2022-08-24T00:11:43.368Z,77.92
2022-08-24T00:14:49.388Z,78.31
2022-08-24T00:17:55.185Z,78.52
2022-08-24T00:21:04.941Z,78.98
2022-08-24T00:24:16.930Z,78.93
2022-08-24T00:27:22.622Z,79.17
2022-08-24T00:30:29.945Z,79.23
2022-08-24T00:33:36.457Z,79.50
2022-08-24T00:36:42.036Z,79.30
2022-08-24T00:39:50.291Z,78.43
2022-08-24T00:43:00.374Z,78.80
2022-08-24T00:46:21.595Z,79.91
2022-08-24T00:49:38.793Z,79.32
2022-08-24T00:52:52.617Z,79.06
2022-08-24T00:56:08.165Z,79.02
2022-08-24T00:59:22.071Z,78.98
2022-08-24T01:02:40.549Z,79.01
2022-08-24T01:05:47.151Z,78.79
2022-08-24T01:08:56.602Z,79.01
2022-08-24T01:12:06.828Z,79.13
2022-08-24T01:15:15.725Z,78.63
2022-08-24T01:18:38.808Z,79.01
2022-08-24T01:22:01.923Z,78.96
2022-08-24T01:25:11.253Z,78.54
2022-08-24T01:28:27.438Z,79.00
2022-08-24T01:31:39.742Z,78.86
2022-08-24T01:34:45.735Z,78.40
2022-08-24T01:37:54.765Z,78.64
2022-08-24T01:41:07.537Z,78.70
2022-08-24T01:44:14.684Z,78.41
2022-08-24T01:47:27.173Z,78.63
2022-08-24T01:50:33.269Z,78.57
2022-08-24T01:53:39.558Z,78.75
2022-08-24T01:56:49.391Z,78.34
2022-08-24T01:59:57.792Z,78.86
2022-08-24T02:03:19.161Z,78.46
2022-08-24T02:06:32.495Z,78.70
2022-08-24T02:09:39.147Z,78.49
2022-08-24T02:12:59.007Z,79.26
2022-08-24T02:16:08.825Z,78.71
2022-08-24T02:19:15.102Z,79.44
2022-08-24T02:22:20.869Z,78.66
2022-08-24T02:25:30.839Z,78.99
2022-08-24T02:28:40.260Z,78.70
2022-08-24T02:31:46.071Z,78.99
2022-08-24T02:34:54.703Z,78.63
2022-08-24T02:38:06.138Z,78.77
2022-08-24T02:41:14.287Z,78.82
2022-08-24T02:44:24.084Z,79.05
2022-08-24T02:47:38.037Z,79.13
2022-08-24T02:50:49.642Z,79.03
2022-08-24T02:53:56.634Z,78.90
2022-08-24T02:57:03.651Z,79.25
2022-08-24T03:00:20.131Z,79.37
2022-08-24T03:03:36.192Z,79.01
2022-08-24T03:06:42.596Z,78.90
2022-08-24T03:09:51.159Z,79.07
2022-08-24T03:12:59.397Z,79.29
2022-08-24T03:16:10.350Z,79.42
2022-08-24T03:19:17.462Z,79.38
2022-08-24T03:22:30.597Z,78.65
2022-08-24T03:25:41.228Z,79.34
2022-08-24T03:28:47.242Z,79.58
2022-08-24T03:31:58.486Z,79.57
2022-08-24T03:35:15.382Z,78.93
2022-08-24T03:38:21.496Z,79.36
2022-08-24T03:41:28.624Z,79.57
2022-08-24T03:44:38.749Z,78.95
2022-08-24T03:47:49.210Z,79.00
2022-08-24T03:50:54.771Z,78.77
2022-08-24T03:54:03.273Z,79.04
2022-08-24T03:57:09.722Z,79.01
2022-08-24T04:00:17.834Z,78.37
2022-08-24T04:03:40.559Z,77.96
2022-08-24T04:06:48.715Z,78.03
2022-08-24T04:09:55.376Z,79.19
2022-08-24T04:13:05.005Z,78.87
2022-08-24T04:16:17.935Z,79.44
2022-08-24T04:19:28.087Z,79.12
2022-08-24T04:22:43.486Z,79.44
2022-08-24T04:25:53.000Z,79.50
2022-08-24T04:29:08.056Z,79.55
2022-08-24T04:32:25.383Z,78.75
2022-08-24T04:35:41.729Z,79.01
2022-08-24T04:38:48.516Z,79.48
2022-08-24T04:42:25.958Z,79.00
2022-08-24T04:45:34.563Z,78.70
2022-08-24T04:48:42.320Z,78.57
2022-08-24T04:51:50.510Z,78.42
2022-08-24T04:54:56.530Z,77.76
2022-08-24T04:58:14.669Z,77.87
2022-08-24T05:01:27.349Z,78.35
2022-08-24T05:04:33.416Z,78.39
2022-08-24T05:07:42.158Z,78.13
2022-08-24T05:10:51.372Z,78.55
2022-08-24T05:13:59.444Z,78.45
2022-08-24T05:17:05.327Z,78.29
2022-08-24T05:20:15.944Z,77.84
2022-08-24T05:23:26.033Z,77.90
2022-08-24T05:26:33.356Z,77.93
2022-08-24T05:29:39.543Z,76.98
2022-08-24T05:32:45.233Z,77.08
2022-08-24T05:35:51.742Z,76.48
2022-08-24T05:39:06.920Z,75.36
2022-08-24T05:42:16.746Z,75.39
2022-08-24T05:45:27.665Z,75.35
2022-08-24T05:48:35.716Z,74.78
2022-08-24T05:51:43.113Z,74.58
2022-08-24T05:55:00.544Z,75.08
2022-08-24T05:58:06.577Z,74.74
2022-08-24T06:01:15.880Z,74.19
2022-08-24T06:04:21.433Z,74.14
2022-08-24T06:07:27.480Z,74.71
2022-08-24T06:10:43.882Z,74.63
2022-08-24T06:13:55.495Z,74.41
2022-08-24T06:17:03.403Z,74.72
2022-08-24T06:20:16.664Z,74.49
2022-08-24T06:23:24.223Z,74.26
2022-08-24T06:26:52.289Z,74.76
2022-08-24T06:30:02.214Z,74.59
2022-08-24T06:33:22.993Z,73.96
2022-08-24T06:36:30.950Z,74.22
2022-08-24T06:39:36.850Z,73.96
2022-08-24T06:42:45.984Z,73.04
2022-08-24T06:46:01.640Z,72.83
2022-08-24T06:49:15.625Z,72.95
2022-08-24T06:52:21.649Z,72.59
2022-08-24T06:55:34.858Z,72.45
2022-08-24T06:58:43.420Z,71.71
2022-08-24T07:01:54.435Z,71.04
2022-08-24T07:05:00.208Z,71.05
2022-08-24T07:08:28.404Z,70.88
2022-08-24T07:11:35.322Z,70.70
2022-08-24T07:14:48.570Z,70.67
2022-08-24T07:17:58.667Z,70.32
2022-08-24T07:21:08.974Z,70.04
2022-08-24T07:24:20.362Z,70.49
2022-08-24T07:27:29.763Z,70.09
2022-08-24T07:30:38.385Z,71.05
2022-08-24T07:33:52.353Z,71.43
2022-08-24T07:37:00.185Z,71.26
2022-08-24T07:40:10.949Z,70.33
2022-08-24T07:43:17.853Z,70.50
2022-08-24T07:46:26.857Z,70.33
2022-08-24T07:49:37.489Z,69.57
2022-08-24T07:52:45.666Z,69.84
2022-08-24T07:56:09.614Z,69.59
2022-08-24T07:59:24.970Z,69.56
2022-08-24T08:02:36.105Z,68.74
2022-08-24T08:05:43.464Z,68.76
2022-08-24T08:08:51.354Z,68.06
2022-08-24T08:11:57.355Z,67.23
2022-08-24T08:15:03.078Z,66.78
2022-08-24T08:18:11.650Z,65.85
2022-08-24T08:21:31.328Z,65.80
2022-08-24T08:24:42.824Z,65.80
2022-08-24T08:27:53.816Z,64.22
2022-08-24T08:30:59.870Z,64.39
2022-08-24T08:34:11.774Z,63.97
2022-08-24T08:37:23.690Z,63.49
2022-08-24T08:40:58.754Z,64.47
2022-08-24T08:44:23.754Z,63.77
2022-08-24T08:48:16.659Z,64.63
2022-08-24T08:52:01.406Z,64.06
2022-08-24T08:55:36.687Z,63.48
2022-08-24T08:59:17.636Z,62.66
2022-08-24T09:03:14.496Z,62.88
2022-08-24T09:07:14.468Z,62.67
2022-08-24T09:10:54.937Z,63.75
2022-08-24T09:14:46.506Z,63.69
2022-08-24T09:18:20.870Z,63.46
2022-08-24T09:22:06.916Z,63.18
2022-08-24T09:25:35.199Z,63.56
2022-08-24T09:29:09.666Z,62.62
2022-08-24T09:33:04.063Z,61.45
2022-08-24T09:36:16.346Z,62.29
2022-08-24T09:40:15.749Z,62.18
2022-08-24T09:44:24.914Z,61.08
2022-08-24T09:48:15.794Z,61.13
2022-08-24T09:52:09.431Z,59.84
2022-08-24T09:56:05.172Z,60.01
2022-08-24T09:59:42.860Z,58.31
2022-08-24T10:03:36.339Z,57.22
2022-08-24T10:07:08.285Z,56.10
2022-08-24T10:10:43.741Z,56.80
2022-08-24T10:14:06.044Z,56.24
2022-08-24T10:17:33.431Z,57.16
2022-08-24T10:21:06.457Z,56.42
2022-08-24T10:24:48.751Z,55.90
2022-08-24T10:28:16.243Z,55.85
2022-08-24T10:31:34.412Z,56.28
2022-08-24T10:35:17.690Z,58.35
2022-08-24T10:38:49.964Z,57.61
2022-08-24T10:42:51.251Z,57.88
2022-08-24T10:46:33.565Z,58.03
2022-08-24T10:50:30.891Z,57.37
2022-08-24T10:53:38.550Z,56.70
2022-08-24T10:56:56.141Z,57.65
2022-08-24T11:00:12.138Z,57.82
2022-08-24T11:03:28.248Z,56.94
2022-08-24T11:07:09.161Z,57.40
2022-08-24T11:10:30.644Z,58.77
2022-08-24T11:13:37.838Z,57.49
2022-08-24T11:16:48.172Z,57.71
2022-08-24T11:19:56.410Z,56.46
2022-08-24T11:23:17.585Z,56.88
2022-08-24T11:26:27.647Z,56.40
2022-08-24T11:30:10.759Z,55.58
2022-08-24T11:33:38.549Z,54.86
2022-08-24T11:36:45.928Z,54.27
2022-08-24T11:39:54.187Z,53.88
2022-08-24T11:43:40.634Z,53.76
2022-08-24T11:47:07.896Z,51.67
2022-08-24T11:50:30.259Z,51.02
2022-08-24T11:54:00.751Z,50.78
2022-08-24T11:57:19.644Z,50.13
2022-08-24T12:00:31.189Z,50.07
2022-08-24T12:04:20.139Z,48.26
2022-08-24T12:07:50.971Z,46.43
2022-08-24T12:11:10.548Z,46.91
2022-08-24T12:14:40.885Z,46.92
2022-08-24T12:18:01.168Z,46.05
2022-08-24T12:21:12.686Z,47.10
2022-08-24T12:24:26.637Z,46.44
2022-08-24T12:27:37.783Z,48.29
2022-08-24T12:30:48.478Z,48.35
2022-08-24T12:34:02.380Z,49.26
2022-08-24T12:37:22.325Z,50.18
2022-08-24T12:40:40.237Z,50.78
2022-08-24T12:43:54.621Z,51.61
2022-08-24T12:47:04.084Z,52.25
2022-08-24T12:50:25.330Z,51.48
2022-08-24T12:54:16.679Z,50.47
2022-08-24T13:01:44.744Z,49.98
2022-08-24T13:05:15.459Z,49.66
2022-08-24T13:08:38.509Z,50.62
2022-08-24T13:11:46.842Z,51.06
2022-08-24T13:14:56.899Z,50.97
2022-08-24T13:18:51.698Z,49.62
2022-08-24T13:22:26.424Z,50.42
2022-08-24T13:25:58.082Z,51.12
2022-08-24T13:29:06.723Z,50.12
2022-08-24T13:32:29.475Z,50.70
2022-08-24T13:35:57.315Z,50.18
2022-08-24T13:39:44.741Z,49.73
2022-08-24T13:43:20.646Z,50.73
2022-08-24T13:46:50.023Z,50.81
2022-08-24T13:50:13.093Z,51.38
2022-08-24T13:54:19.911Z,50.37
2022-08-24T13:57:44.059Z,50.17
2022-08-24T14:01:21.882Z,49.72
2022-08-24T14:04:50.365Z,50.26
2022-08-24T14:08:25.666Z,51.17
2022-08-24T14:12:07.378Z,50.76
2022-08-24T14:15:47.543Z,51.50
2022-08-24T14:19:15.535Z,50.52
2022-08-24T14:22:39.533Z,50.96
2022-08-24T14:26:20.679Z,51.83
2022-08-24T14:29:39.678Z,52.40
2022-08-24T14:33:17.029Z,52.56
2022-08-24T14:36:49.635Z,52.40
2022-08-24T14:40:18.936Z,53.06
2022-08-24T14:43:37.638Z,53.39
2022-08-24T14:46:57.330Z,52.76
2022-08-24T14:50:19.033Z,53.01
2022-08-24T14:53:59.610Z,53.80
2022-08-24T14:57:31.752Z,54.51
2022-08-24T15:01:10.955Z,54.71
2022-08-24T15:04:42.084Z,55.48
2022-08-24T15:08:02.125Z,55.19
2022-08-24T15:11:15.467Z,54.83
2022-08-24T15:14:41.288Z,55.17
2022-08-24T15:18:13.584Z,54.95
2022-08-24T15:21:43.391Z,56.08
2022-08-24T15:25:06.227Z,55.47
2022-08-24T15:28:17.718Z,55.52
2022-08-24T15:31:36.458Z,55.46
2022-08-24T15:34:50.280Z,55.35
2022-08-24T15:37:56.465Z,56.13
2022-08-24T15:41:15.425Z,57.24
2022-08-24T15:44:29.072Z,56.57
2022-08-24T15:47:39.353Z,56.81
2022-08-24T15:50:49.696Z,57.31
2022-08-24T15:53:55.320Z,57.31
2022-08-24T15:57:08.450Z,56.46
2022-08-24T16:00:44.716Z,57.53
2022-08-24T16:03:55.440Z,58.00
2022-08-24T16:07:01.041Z,57.42
2022-08-24T16:10:12.411Z,57.77
2022-08-24T16:13:35.844Z,58.46
2022-08-24T16:16:46.784Z,58.61
2022-08-24T16:19:57.034Z,58.29
2022-08-24T16:23:17.343Z,58.43
2022-08-24T16:26:28.586Z,58.64
2022-08-24T16:29:56.345Z,58.68
2022-08-24T16:33:06.072Z,58.89
2022-08-24T16:36:16.694Z,59.47
2022-08-24T16:39:27.078Z,60.05
2022-08-24T16:42:34.809Z,60.32
2022-08-24T16:45:47.150Z,60.55
2022-08-24T16:48:54.352Z,60.39
2022-08-24T16:52:00.060Z,60.62
2022-08-24T16:55:05.964Z,60.34
2022-08-24T16:58:11.660Z,60.18
2022-08-24T17:01:26.384Z,60.76
2022-08-24T17:04:32.030Z,60.83
2022-08-24T17:07:38.126Z,61.33
2022-08-24T17:10:44.143Z,61.38
2022-08-24T17:13:50.705Z,61.27
2022-08-24T17:17:07.954Z,61.06
2022-08-24T17:20:21.057Z,61.64
2022-08-24T17:23:26.797Z,61.38
2022-08-24T17:26:34.944Z,61.83
2022-08-24T17:29:49.760Z,62.27
2022-08-24T17:33:05.976Z,62.71
2022-08-24T17:36:32.327Z,62.16
2022-08-24T17:39:38.895Z,62.97
2022-08-24T17:42:51.168Z,62.89
2022-08-24T17:46:00.036Z,63.15
2022-08-24T17:49:11.765Z,63.13
2022-08-24T17:52:17.863Z,63.35
2022-08-24T17:55:24.984Z,63.41
2022-08-24T17:58:31.900Z,63.73
2022-08-24T18:01:41.316Z,64.64
2022-08-24T18:04:50.302Z,65.14
2022-08-24T18:07:59.001Z,65.27
2022-08-24T18:11:04.481Z,64.98
2022-08-24T18:14:10.378Z,65.28
2022-08-24T18:17:23.000Z,65.33
2022-08-24T18:20:42.003Z,65.91
2022-08-24T18:23:48.013Z,66.48
2022-08-24T18:26:54.673Z,66.71
2022-08-24T18:30:07.145Z,66.36
2022-08-24T18:33:14.160Z,66.83
2022-08-24T18:36:22.289Z,66.32
2022-08-24T18:39:27.825Z,66.77
2022-08-24T18:42:34.868Z,65.52
2022-08-24T18:45:41.760Z,64.95
2022-08-24T18:48:47.449Z,64.54
2022-08-24T18:51:56.092Z,65.24
2022-08-24T18:55:09.016Z,64.71
2022-08-24T18:58:19.867Z,65.05
2022-08-24T19:01:28.463Z,65.16
2022-08-24T19:04:34.649Z,65.44
2022-08-24T19:07:46.804Z,65.19
2022-08-24T19:10:56.086Z,64.90
2022-08-24T19:14:11.590Z,64.87
2022-08-24T19:17:18.067Z,65.07
2022-08-24T19:20:23.696Z,65.77
2022-08-24T19:23:39.287Z,65.23
2022-08-24T19:26:44.863Z,64.79
2022-08-24T19:29:57.725Z,65.26
2022-08-24T19:33:26.135Z,64.86
2022-08-24T19:36:39.606Z,64.02
2022-08-24T19:42:56.754Z,63.79
2022-08-24T19:46:02.798Z,64.14
2022-08-24T19:49:09.102Z,63.43
2022-08-24T19:52:15.547Z,63.96
2022-08-24T19:55:24.393Z,63.34
2022-08-24T19:58:39.989Z,63.79
2022-08-24T20:01:45.592Z,64.55
2022-08-24T20:04:52.042Z,64.86
2022-08-24T20:07:59.740Z,64.98
2022-08-24T20:11:08.471Z,65.17
2022-08-24T20:14:14.100Z,65.25
2022-08-24T20:17:19.753Z,65.97
2022-08-24T20:20:35.969Z,66.40
2022-08-24T20:23:41.779Z,66.34
2022-08-24T20:26:50.538Z,66.50
2022-08-24T20:29:59.050Z,66.33
2022-08-24T20:33:04.756Z,66.55
2022-08-24T20:36:25.912Z,66.82
2022-08-24T20:39:31.586Z,66.86
2022-08-24T20:42:41.685Z,66.59
2022-08-24T20:45:47.804Z,66.76
2022-08-24T20:48:55.745Z,67.02
2022-08-24T20:52:03.166Z,66.46
2022-08-24T20:55:10.219Z,67.27
2022-08-24T20:58:24.140Z,67.43
2022-08-24T21:01:29.776Z,68.15
2022-08-24T21:04:35.309Z,68.33
2022-08-24T21:07:47.826Z,68.15
2022-08-24T21:10:53.322Z,68.50
2022-08-24T21:14:09.440Z,68.82
2022-08-24T21:17:14.997Z,69.79
2022-08-24T21:20:23.328Z,70.11
2022-08-24T21:23:28.986Z,70.18
2022-08-24T21:26:37.135Z,70.50
2022-08-24T21:29:45.252Z,70.96
2022-08-24T21:33:03.814Z,71.33
2022-08-24T21:36:10.394Z,70.99
2022-08-24T21:39:16.380Z,70.93
2022-08-24T21:42:22.226Z,70.82
2022-08-24T21:45:31.971Z,70.58
2022-08-24T21:48:37.696Z,70.51
2022-08-24T21:51:43.535Z,71.09
2022-08-24T21:54:49.167Z,70.93
2022-08-24T21:57:55.373Z,71.43
2022-08-24T22:01:03.700Z,71.42
2022-08-24T22:04:09.750Z,71.98
2022-08-24T22:07:21.453Z,72.53
2022-08-24T22:10:28.714Z,72.47
2022-08-24T22:13:35.006Z,71.99
2022-08-24T22:16:43.273Z,72.26
2022-08-24T22:19:48.854Z,72.21
2022-08-24T22:22:55.213Z,72.20
2022-08-24T22:26:00.724Z,72.86
2022-08-24T22:29:10.098Z,72.51
2022-08-24T22:32:18.302Z,72.29
2022-08-24T22:35:24.104Z,72.49
2022-08-24T22:38:29.626Z,72.22
2022-08-24T22:41:35.239Z,72.59
2022-08-24T22:44:40.746Z,72.36
2022-08-24T22:47:48.913Z,72.48
2022-08-24T22:50:54.415Z,72.05
2022-08-24T22:54:00.530Z,72.43
2022-08-24T22:57:06.965Z,72.72
2022-08-24T23:00:15.041Z,72.61
2022-08-24T23:03:25.332Z,73.23
2022-08-24T23:06:31.993Z,73.03
2022-08-24T23:09:44.939Z,72.88
2022-08-24T23:12:51.238Z,73.46
2022-08-24T23:15:56.803Z,73.18
2022-08-24T23:19:17.532Z,73.55
2022-08-24T23:22:24.206Z,73.63
2022-08-24T23:25:31.472Z,73.43
2022-08-24T23:28:37.392Z,73.61
2022-08-24T23:31:43.706Z,73.22
2022-08-24T23:34:53.282Z,73.80
2022-08-24T23:37:58.879Z,73.20
2022-08-24T23:41:09.743Z,73.43
2022-08-24T23:44:21.026Z,73.98
2022-08-24T23:47:26.628Z,73.47
2022-08-24T23:50:38.711Z,73.74
2022-08-24T23:53:48.084Z,73.87
2022-08-24T23:56:56.174Z,74.33
